Main page
METAR-TAF:

METAR-TAF

Airports :

Land's End Airport

Land's End, England

latitude: 50-06-10N, longitude: 005-40-14W, elevation: 122 m

Current weather observation

The report was made 23 minutes ago, at 06:20 UTC
Wind 13 kt from the Southwest
Temperature 17°C
Humidity 100%
Pressure 1021 hPa
Visibility: 0050 m
fog

METAR: EGHC 220620Z 22013KT 0050 FG VV/// 17/17 Q1021

Time: 07:43 (06:43 UTC)


TAF: missing

Weather observations and forecasts of more than 4000 airports (METAR and TAF reports).

The available stations are represented by yellow and red dots on the map.

Hover mouse over dot to see the name of the station.

Then click to see weather observations and forecasts.

To change the map : click on the green buttons with a black cross to zoom in, on the green button with a dash to zoom out, or on the green arrows for adjacent maps.


METAR-TAF: